sensor_id;sensor_type;location;lat;lon;timestamp;pressure;altitude;pressure_sealevel;temperature
24201;BMP280;2801;50.972;7.856;2024-02-21T00:00:55;98272.72;;;7.99
24201;BMP280;2801;50.972;7.856;2024-02-21T00:03:22;98270.53;;;8.01
24201;BMP280;2801;50.972;7.856;2024-02-21T00:05:49;98264.97;;;7.97
24201;BMP280;2801;50.972;7.856;2024-02-21T00:08:16;98264.97;;;7.97
24201;BMP280;2801;50.972;7.856;2024-02-21T00:10:43;98256.63;;;8.04
24201;BMP280;2801;50.972;7.856;2024-02-21T00:13:10;98255.31;;;8.01
24201;BMP280;2801;50.972;7.856;2024-02-21T00:15:37;98260.13;;;7.99
24201;BMP280;2801;50.972;7.856;2024-02-21T00:18:04;98258.28;;;8.00
24201;BMP280;2801;50.972;7.856;2024-02-21T00:20:32;98256.41;;;8.00
24201;BMP280;2801;50.972;7.856;2024-02-21T00:22:59;98255.59;;;8.00
24201;BMP280;2801;50.972;7.856;2024-02-21T00:25:26;98258.00;;;8.01
24201;BMP280;2801;50.972;7.856;2024-02-21T00:27:52;98262.53;;;8.01
24201;BMP280;2801;50.972;7.856;2024-02-21T00:30:21;98253.44;;;8.02
24201;BMP280;2801;50.972;7.856;2024-02-21T00:32:47;98251.06;;;8.00
24201;BMP280;2801;50.972;7.856;2024-02-21T00:35:15;98244.91;;;8.00
24201;BMP280;2801;50.972;7.856;2024-02-21T00:37:42;98242.78;;;8.02
24201;BMP280;2801;50.972;7.856;2024-02-21T00:40:09;98232.59;;;8.04
24201;BMP280;2801;50.972;7.856;2024-02-21T00:42:37;98232.09;;;8.02
24201;BMP280;2801;50.972;7.856;2024-02-21T00:45:04;98225.22;;;7.96
24201;BMP280;2801;50.972;7.856;2024-02-21T00:47:31;98232.38;;;8.00
24201;BMP280;2801;50.972;7.856;2024-02-21T00:49:58;98230.47;;;8.01
24201;BMP280;2801;50.972;7.856;2024-02-21T00:52:26;98219.03;;;8.00
24201;BMP280;2801;50.972;7.856;2024-02-21T00:54:53;98227.31;;;7.99
24201;BMP280;2801;50.972;7.856;2024-02-21T00:57:21;98226.22;;;8.00
24201;BMP280;2801;50.972;7.856;2024-02-21T00:59:47;98219.59;;;7.97
24201;BMP280;2801;50.972;7.856;2024-02-21T01:02:14;98217.22;;;7.96
24201;BMP280;2801;50.972;7.856;2024-02-21T01:04:42;98219.59;;;7.97
24201;BMP280;2801;50.972;7.856;2024-02-21T01:07:09;98218.78;;;7.97
24201;BMP280;2801;50.972;7.856;2024-02-21T01:09:36;98215.53;;;8.00
24201;BMP280;2801;50.972;7.856;2024-02-21T01:12:03;98217.66;;;8.03
24201;BMP280;2801;50.972;7.856;2024-02-21T01:14:31;98209.41;;;7.99
24201;BMP280;2801;50.972;7.856;2024-02-21T01:16:58;98212.06;;;7.99
24201;BMP280;2801;50.972;7.856;2024-02-21T01:19:24;98215.25;;;8.01
24201;BMP280;2801;50.972;7.856;2024-02-21T01:21:52;98213.41;;;8.02
24201;BMP280;2801;50.972;7.856;2024-02-21T01:24:19;98209.41;;;7.99
24201;BMP280;2801;50.972;7.856;2024-02-21T01:26:46;98196.84;;;8.00
24201;BMP280;2801;50.972;7.856;2024-02-21T01:29:13;98207.53;;;8.00
24201;BMP280;2801;50.972;7.856;2024-02-21T01:31:40;98194.72;;;8.02
24201;BMP280;2801;50.972;7.856;2024-02-21T01:34:07;98192.03;;;8.02
24201;BMP280;2801;50.972;7.856;2024-02-21T01:36:34;98192.03;;;8.02
24201;BMP280;2801;50.972;7.856;2024-02-21T01:39:01;98190.66;;;8.04
24201;BMP280;2801;50.972;7.856;2024-02-21T01:41:30;98176.28;;;8.00
24201;BMP280;2801;50.972;7.856;2024-02-21T01:43:58;98176.78;;;8.02
24201;BMP280;2801;50.972;7.856;2024-02-21T01:46:25;98171.72;;;8.01
24201;BMP280;2801;50.972;7.856;2024-02-21T01:48:57;98176.00;;;8.02
24201;BMP280;2801;50.972;7.856;2024-02-21T01:51:25;98175.22;;;8.01
24201;BMP280;2801;50.972;7.856;2024-02-21T01:53:53;98164.81;;;8.00
24201;BMP280;2801;50.972;7.856;2024-02-21T01:56:22;98152.47;;;8.04
24201;BMP280;2801;50.972;7.856;2024-02-21T01:58:50;98144.81;;;7.97
24201;BMP280;2801;50.972;7.856;2024-02-21T02:01:17;98147.50;;;7.97
24201;BMP280;2801;50.972;7.856;2024-02-21T02:03:49;98139.78;;;7.96
24201;BMP280;2801;50.972;7.856;2024-02-21T02:06:16;98129.91;;;7.96
24201;BMP280;2801;50.972;7.856;2024-02-21T02:08:44;98116.84;;;7.95
24201;BMP280;2801;50.972;7.856;2024-02-21T02:11:13;98128.00;;;7.97
24201;BMP280;2801;50.972;7.856;2024-02-21T02:13:41;98131.19;;;7.99
24201;BMP280;2801;50.972;7.856;2024-02-21T02:16:08;98118.13;;;7.97
24201;BMP280;2801;50.972;7.856;2024-02-21T02:18:35;98119.22;;;7.96
24201;BMP280;2801;50.972;7.856;2024-02-21T02:21:12;98113.88;;;7.96
24201;BMP280;2801;50.972;7.856;2024-02-21T02:23:42;98119.78;;;7.93
24201;BMP280;2801;50.972;7.856;2024-02-21T02:26:09;98117.94;;;7.94
24201;BMP280;2801;50.972;7.856;2024-02-21T02:28:36;98111.25;;;7.91
24201;BMP280;2801;50.972;7.856;2024-02-21T02:31:03;98113.06;;;7.96
24201;BMP280;2801;50.972;7.856;2024-02-21T02:33:30;98112.59;;;7.94
24201;BMP280;2801;50.972;7.856;2024-02-21T02:35:57;98109.97;;;7.89
24201;BMP280;2801;50.972;7.856;2024-02-21T02:38:25;98110.25;;;7.87
24201;BMP280;2801;50.972;7.856;2024-02-21T02:40:52;98092.56;;;7.91
24201;BMP280;2801;50.972;7.856;2024-02-21T02:43:19;98075.63;;;7.82
24201;BMP280;2801;50.972;7.856;2024-02-21T02:45:46;98083.28;;;7.89
24201;BMP280;2801;50.972;7.856;2024-02-21T02:48:13;98071.31;;;7.86
24201;BMP280;2801;50.972;7.856;2024-02-21T02:50:40;98080.41;;;7.85
24201;BMP280;2801;50.972;7.856;2024-02-21T02:53:07;98072.41;;;7.85
24201;BMP280;2801;50.972;7.856;2024-02-21T02:55:34;98066.53;;;7.83
24201;BMP280;2801;50.972;7.856;2024-02-21T02:58:02;98060.91;;;7.85
24201;BMP280;2801;50.972;7.856;2024-02-21T03:00:29;98051.63;;;7.82
24201;BMP280;2801;50.972;7.856;2024-02-21T03:02:56;98047.56;;;7.85
24201;BMP280;2801;50.972;7.856;2024-02-21T03:05:23;98058.81;;;7.82
24201;BMP280;2801;50.972;7.856;2024-02-21T03:07:50;98053.00;;;7.80
24201;BMP280;2801;50.972;7.856;2024-02-21T03:10:17;98060.72;;;7.81
24201;BMP280;2801;50.972;7.856;2024-02-21T03:12:45;98049.44;;;7.84
24201;BMP280;2801;50.972;7.856;2024-02-21T03:15:14;98040.41;;;7.80
24201;BMP280;2801;50.972;7.856;2024-02-21T03:17:41;98052.72;;;7.81
24201;BMP280;2801;50.972;7.856;2024-02-21T03:20:09;98051.03;;;7.85
24201;BMP280;2801;50.972;7.856;2024-02-21T03:22:40;98048.75;;;7.79
24201;BMP280;2801;50.972;7.856;2024-02-21T03:25:09;98050.81;;;7.82
24201;BMP280;2801;50.972;7.856;2024-02-21T03:27:36;98055.88;;;7.83
24201;BMP280;2801;50.972;7.856;2024-02-21T03:30:04;98047.09;;;7.83
24201;BMP280;2801;50.972;7.856;2024-02-21T03:32:31;98040.13;;;7.82
24201;BMP280;2801;50.972;7.856;2024-02-21T03:34:59;98042.22;;;7.85
24201;BMP280;2801;50.972;7.856;2024-02-21T03:37:26;98045.19;;;7.83
24201;BMP280;2801;50.972;7.856;2024-02-21T03:39:53;98052.09;;;7.84
24201;BMP280;2801;50.972;7.856;2024-02-21T03:42:20;98047.00;;;7.88
24201;BMP280;2801;50.972;7.856;2024-02-21T03:44:47;98043.22;;;7.89
24201;BMP280;2801;50.972;7.856;2024-02-21T03:47:14;98036.31;;;7.88
24201;BMP280;2801;50.972;7.856;2024-02-21T03:49:40;98024.91;;;7.82
24201;BMP280;2801;50.972;7.856;2024-02-21T03:52:08;98032.06;;;7.87
24201;BMP280;2801;50.972;7.856;2024-02-21T03:54:35;98025.63;;;7.88
24201;BMP280;2801;50.972;7.856;2024-02-21T03:57:02;98017.72;;;7.83
24201;BMP280;2801;50.972;7.856;2024-02-21T03:59:29;98016.72;;;7.79
24201;BMP280;2801;50.972;7.856;2024-02-21T04:01:56;98017.00;;;7.77
24201;BMP280;2801;50.972;7.856;2024-02-21T04:04:23;98003.84;;;7.81
24201;BMP280;2801;50.972;7.856;2024-02-21T04:06:51;98006.53;;;7.81
24201;BMP280;2801;50.972;7.856;2024-02-21T04:09:18;98006.53;;;7.81
24201;BMP280;2801;50.972;7.856;2024-02-21T04:11:45;98009.88;;;7.72
24201;BMP280;2801;50.972;7.856;2024-02-21T04:14:12;97997.00;;;7.74
24201;BMP280;2801;50.972;7.856;2024-02-21T04:16:40;97989.00;;;7.74
24201;BMP280;2801;50.972;7.856;2024-02-21T04:19:07;97997.53;;;7.77
24201;BMP280;2801;50.972;7.856;2024-02-21T04:21:35;97988.72;;;7.76
24201;BMP280;2801;50.972;7.856;2024-02-21T04:24:03;97983.97;;;7.73
24201;BMP280;2801;50.972;7.856;2024-02-21T04:26:33;97973.06;;;7.69
24201;BMP280;2801;50.972;7.856;2024-02-21T04:29:00;97978.69;;;7.68
24201;BMP280;2801;50.972;7.856;2024-02-21T04:31:28;97982.47;;;7.67
24201;BMP280;2801;50.972;7.856;2024-02-21T04:33:59;97981.75;;;7.61
24201;BMP280;2801;50.972;7.856;2024-02-21T04:36:26;97978.28;;;7.61
24201;BMP280;2801;50.972;7.856;2024-02-21T04:38:53;97977.22;;;7.62
24201;BMP280;2801;50.972;7.856;2024-02-21T04:41:20;97974.75;;;7.65
24201;BMP280;2801;50.972;7.856;2024-02-21T04:43:47;97989.75;;;7.61
24201;BMP280;2801;50.972;7.856;2024-02-21T04:46:15;97982.25;;;7.63
24201;BMP280;2801;50.972;7.856;2024-02-21T04:48:42;97981.22;;;7.59
24201;BMP280;2801;50.972;7.856;2024-02-21T04:51:12;97979.88;;;7.62
24201;BMP280;2801;50.972;7.856;2024-02-21T04:53:39;97976.31;;;7.66
24201;BMP280;2801;50.972;7.856;2024-02-21T04:56:06;97972.94;;;7.61
24201;BMP280;2801;50.972;7.856;2024-02-21T04:58:38;97971.28;;;7.65
24201;BMP280;2801;50.972;7.856;2024-02-21T05:01:06;97973.16;;;7.64
24201;BMP280;2801;50.972;7.856;2024-02-21T05:03:34;97979.00;;;7.66
24201;BMP280;2801;50.972;7.856;2024-02-21T05:06:01;97982.56;;;7.62
24201;BMP280;2801;50.972;7.856;2024-02-21T05:08:28;97984.94;;;7.63
24201;BMP280;2801;50.972;7.856;2024-02-21T05:10:55;97977.22;;;7.62
24201;BMP280;2801;50.972;7.856;2024-02-21T05:13:23;97982.75;;;7.65
24201;BMP280;2801;50.972;7.856;2024-02-21T05:15:50;97996.09;;;7.65
24201;BMP280;2801;50.972;7.856;2024-02-21T05:18:17;97995.59;;;7.63
24201;BMP280;2801;50.972;7.856;2024-02-21T05:20:44;97983.03;;;7.64
24201;BMP280;2801;50.972;7.856;2024-02-21T05:23:11;97991.84;;;7.64
24201;BMP280;2801;50.972;7.856;2024-02-21T05:25:38;97993.94;;;7.68
24201;BMP280;2801;50.972;7.856;2024-02-21T05:28:05;97988.00;;;7.70
24201;BMP280;2801;50.972;7.856;2024-02-21T05:30:33;97981.59;;;7.72
24201;BMP280;2801;50.972;7.856;2024-02-21T05:33:05;97981.59;;;7.72
24201;BMP280;2801;50.972;7.856;2024-02-21T05:35:34;97985.25;;;7.76
24201;BMP280;2801;50.972;7.856;2024-02-21T05:38:01;97975.66;;;7.74
24201;BMP280;2801;50.972;7.856;2024-02-21T05:40:31;97978.56;;;7.78
24201;BMP280;2801;50.972;7.856;2024-02-21T05:42:58;97978.56;;;7.78
24201;BMP280;2801;50.972;7.856;2024-02-21T05:45:24;97974.31;;;7.77
24201;BMP280;2801;50.972;7.856;2024-02-21T05:47:51;97972.69;;;7.76
24201;BMP280;2801;50.972;7.856;2024-02-21T05:50:18;97981.50;;;7.77
24201;BMP280;2801;50.972;7.856;2024-02-21T05:52:46;97978.69;;;7.68
24201;BMP280;2801;50.972;7.856;2024-02-21T05:55:13;97969.81;;;7.72
24201;BMP280;2801;50.972;7.856;2024-02-21T05:57:41;97969.25;;;7.76
24201;BMP280;2801;50.972;7.856;2024-02-21T06:00:08;97963.91;;;7.76
24201;BMP280;2801;50.972;7.856;2024-02-21T06:02:35;97965.28;;;7.73
24201;BMP280;2801;50.972;7.856;2024-02-21T06:05:03;97966.34;;;7.72
24201;BMP280;2801;50.972;7.856;2024-02-21T06:07:30;97965.59;;;7.72
24201;BMP280;2801;50.972;7.856;2024-02-21T06:09:57;97972.50;;;7.72
24201;BMP280;2801;50.972;7.856;2024-02-21T06:12:24;97972.50;;;7.72
24201;BMP280;2801;50.972;7.856;2024-02-21T06:14:50;97966.34;;;7.72
24201;BMP280;2801;50.972;7.856;2024-02-21T06:17:18;97963.69;;;7.72
24201;BMP280;2801;50.972;7.856;2024-02-21T06:19:44;97956.78;;;7.71
24201;BMP280;2801;50.972;7.856;2024-02-21T06:22:12;97957.06;;;7.69
24201;BMP280;2801;50.972;7.856;2024-02-21T06:24:39;97957.06;;;7.69
24201;BMP280;2801;50.972;7.856;2024-02-21T06:27:06;97950.94;;;7.69
24201;BMP280;2801;50.972;7.856;2024-02-21T06:29:37;97954.19;;;7.66
24201;BMP280;2801;50.972;7.856;2024-02-21T06:32:04;97959.72;;;7.69
24201;BMP280;2801;50.972;7.856;2024-02-21T06:34:31;97960.91;;;7.63
24201;BMP280;2801;50.972;7.856;2024-02-21T06:37:00;97962.22;;;7.66
24201;BMP280;2801;50.972;7.856;2024-02-21T06:39:27;97958.44;;;7.67
24201;BMP280;2801;50.972;7.856;2024-02-21T06:41:56;97950.63;;;7.70
24201;BMP280;2801;50.972;7.856;2024-02-21T06:44:28;97942.16;;;7.68
24201;BMP280;2801;50.972;7.856;2024-02-21T06:46:55;97935.44;;;7.71
24201;BMP280;2801;50.972;7.856;2024-02-21T06:49:22;97929.09;;;7.67
24201;BMP280;2801;50.972;7.856;2024-02-21T06:51:50;97927.72;;;7.69
24201;BMP280;2801;50.972;7.856;2024-02-21T06:54:16;97929.00;;;7.72
24201;BMP280;2801;50.972;7.856;2024-02-21T06:56:45;97922.88;;;7.72
24201;BMP280;2801;50.972;7.856;2024-02-21T06:59:12;97909.84;;;7.70
24201;BMP280;2801;50.972;7.856;2024-02-21T07:01:53;97917.56;;;7.72
24201;BMP280;2801;50.972;7.856;2024-02-21T07:04:20;97921.22;;;7.76
24201;BMP280;2801;50.972;7.856;2024-02-21T07:06:47;97920.91;;;7.77
24201;BMP280;2801;50.972;7.856;2024-02-21T07:09:14;97920.31;;;7.80
24201;BMP280;2801;50.972;7.856;2024-02-21T07:11:41;97897.38;;;7.79
24201;BMP280;2801;50.972;7.856;2024-02-21T07:14:08;97909.75;;;7.89
24201;BMP280;2801;50.972;7.856;2024-02-21T07:16:35;97909.16;;;7.92
24201;BMP280;2801;50.972;7.856;2024-02-21T07:19:02;97907.66;;;7.86
24201;BMP280;2801;50.972;7.856;2024-02-21T07:21:29;97902.25;;;7.91
24201;BMP280;2801;50.972;7.856;2024-02-21T07:23:57;97911.25;;;7.95
24201;BMP280;2801;50.972;7.856;2024-02-21T07:26:24;97913.91;;;7.81
24201;BMP280;2801;50.972;7.856;2024-02-21T07:28:50;97911.84;;;7.92
24201;BMP280;2801;50.972;7.856;2024-02-21T07:31:17;97912.53;;;7.97
24201;BMP280;2801;50.972;7.856;2024-02-21T07:33:44;97894.44;;;7.94
24201;BMP280;2801;50.972;7.856;2024-02-21T07:36:12;97903.72;;;7.97
24201;BMP280;2801;50.972;7.856;2024-02-21T07:38:42;97902.66;;;7.98
24201;BMP280;2801;50.972;7.856;2024-02-21T07:41:09;97897.63;;;7.96
24201;BMP280;2801;50.972;7.856;2024-02-21T07:43:36;97906.63;;;8.00
24201;BMP280;2801;50.972;7.856;2024-02-21T07:46:03;97889.22;;;8.03
24201;BMP280;2801;50.972;7.856;2024-02-21T07:48:30;97887.25;;;8.08
24201;BMP280;2801;50.972;7.856;2024-02-21T07:51:01;97886.94;;;8.10
24201;BMP280;2801;50.972;7.856;2024-02-21T07:53:28;97887.81;;;8.19
24201;BMP280;2801;50.972;7.856;2024-02-21T07:55:55;97879.44;;;8.25
24201;BMP280;2801;50.972;7.856;2024-02-21T07:58:22;97875.09;;;8.29
24201;BMP280;2801;50.972;7.856;2024-02-21T08:00:49;97867.75;;;8.35
24201;BMP280;2801;50.972;7.856;2024-02-21T08:03:16;97860.84;;;8.34
24201;BMP280;2801;50.972;7.856;2024-02-21T08:05:44;97866.47;;;8.46
24201;BMP280;2801;50.972;7.856;2024-02-21T08:08:12;97856.97;;;8.53
24201;BMP280;2801;50.972;7.856;2024-02-21T08:10:45;97860.78;;;8.61
24201;BMP280;2801;50.972;7.856;2024-02-21T08:13:12;97855.94;;;8.63
24201;BMP280;2801;50.972;7.856;2024-02-21T08:15:39;97861.47;;;8.66
24201;BMP280;2801;50.972;7.856;2024-02-21T08:18:09;97850.78;;;8.66
24201;BMP280;2801;50.972;7.856;2024-02-21T08:20:36;97847.69;;;8.73
24201;BMP280;2801;50.972;7.856;2024-02-21T08:23:03;97837.69;;;8.78
24201;BMP280;2801;50.972;7.856;2024-02-21T08:25:30;97840.97;;;8.75
24201;BMP280;2801;50.972;7.856;2024-02-21T08:27:59;97832.72;;;8.85
24201;BMP280;2801;50.972;7.856;2024-02-21T08:30:26;97820.94;;;8.86
24201;BMP280;2801;50.972;7.856;2024-02-21T08:32:54;97825.56;;;8.94
24201;BMP280;2801;50.972;7.856;2024-02-21T08:35:21;97824.16;;;8.97
24201;BMP280;2801;50.972;7.856;2024-02-21T08:37:49;97818.22;;;9.00
24201;BMP280;2801;50.972;7.856;2024-02-21T08:40:16;97816.94;;;8.97
24201;BMP280;2801;50.972;7.856;2024-02-21T08:42:48;97817.47;;;9.08
24201;BMP280;2801;50.972;7.856;2024-02-21T08:45:16;97819.06;;;9.09
24201;BMP280;2801;50.972;7.856;2024-02-21T08:47:43;97812.31;;;9.11
24201;BMP280;2801;50.972;7.856;2024-02-21T08:50:11;97806.88;;;9.03
24201;BMP280;2801;50.972;7.856;2024-02-21T08:52:53;97809.88;;;9.01
24201;BMP280;2801;50.972;7.856;2024-02-21T08:55:21;97806.59;;;9.04
24201;BMP280;2801;50.972;7.856;2024-02-21T08:57:48;97802.03;;;9.05
24201;BMP280;2801;50.972;7.856;2024-02-21T09:00:16;97794.75;;;8.97
24201;BMP280;2801;50.972;7.856;2024-02-21T09:02:43;97789.56;;;9.00
24201;BMP280;2801;50.972;7.856;2024-02-21T09:05:11;97781.75;;;9.04
24201;BMP280;2801;50.972;7.856;2024-02-21T09:07:38;97793.41;;;9.08
24201;BMP280;2801;50.972;7.856;2024-02-21T09:10:09;97792.31;;;9.09
24201;BMP280;2801;50.972;7.856;2024-02-21T09:12:36;97791.16;;;9.01
24201;BMP280;2801;50.972;7.856;2024-02-21T09:15:03;97789.56;;;9.00
24201;BMP280;2801;50.972;7.856;2024-02-21T09:17:30;97798.25;;;9.06
24201;BMP280;2801;50.972;7.856;2024-02-21T09:19:57;97792.59;;;9.07
24201;BMP280;2801;50.972;7.856;2024-02-21T09:22:29;97795.13;;;9.04
24201;BMP280;2801;50.972;7.856;2024-02-21T09:24:56;97795.59;;;9.06
24201;BMP280;2801;50.972;7.856;2024-02-21T09:27:23;97782.41;;;9.09
24201;BMP280;2801;50.972;7.856;2024-02-21T09:29:50;97773.88;;;9.07
24201;BMP280;2801;50.972;7.856;2024-02-21T09:32:18;97784.16;;;9.14
24201;BMP280;2801;50.972;7.856;2024-02-21T09:34:45;97774.09;;;9.19
24201;BMP280;2801;50.972;7.856;2024-02-21T09:37:13;97772.25;;;9.20
24201;BMP280;2801;50.972;7.856;2024-02-21T09:39:40;97765.00;;;9.20
24201;BMP280;2801;50.972;7.856;2024-02-21T09:42:10;97757.75;;;9.21
24201;BMP280;2801;50.972;7.856;2024-02-21T09:44:38;97766.75;;;9.25
24201;BMP280;2801;50.972;7.856;2024-02-21T09:47:19;97762.19;;;9.25
24201;BMP280;2801;50.972;7.856;2024-02-21T09:49:49;97755.78;;;9.35
24201;BMP280;2801;50.972;7.856;2024-02-21T09:52:19;97760.09;;;9.44
24201;BMP280;2801;50.972;7.856;2024-02-21T09:54:47;97755.53;;;9.45
24201;BMP280;2801;50.972;7.856;2024-02-21T09:57:15;97739.81;;;9.52
24201;BMP280;2801;50.972;7.856;2024-02-21T09:59:44;97748.19;;;9.59
24201;BMP280;2801;50.972;7.856;2024-02-21T10:02:12;97730.09;;;9.56
24201;BMP280;2801;50.972;7.856;2024-02-21T10:04:40;97717.97;;;9.58
24201;BMP280;2801;50.972;7.856;2024-02-21T10:07:08;97719.69;;;9.63
24201;BMP280;2801;50.972;7.856;2024-02-21T10:09:35;97718.63;;;9.64
24201;BMP280;2801;50.972;7.856;2024-02-21T10:12:12;97708.25;;;9.71
24201;BMP280;2801;50.972;7.856;2024-02-21T10:14:40;97713.13;;;9.77
24201;BMP280;2801;50.972;7.856;2024-02-21T10:17:08;97711.22;;;9.78
24201;BMP280;2801;50.972;7.856;2024-02-21T10:19:42;97716.16;;;9.84
24201;BMP280;2801;50.972;7.856;2024-02-21T10:22:09;97715.38;;;9.92
24201;BMP280;2801;50.972;7.856;2024-02-21T10:24:37;97722.38;;;10.10
24201;BMP280;2801;50.972;7.856;2024-02-21T10:27:10;97719.34;;;10.12
24201;BMP280;2801;50.972;7.856;2024-02-21T10:29:40;97720.00;;;10.17
24201;BMP280;2801;50.972;7.856;2024-02-21T10:32:12;97717.03;;;10.36
24201;BMP280;2801;50.972;7.856;2024-02-21T10:34:42;97701.88;;;10.31
24201;BMP280;2801;50.972;7.856;2024-02-21T10:37:11;97703.47;;;10.41
24201;BMP280;2801;50.972;7.856;2024-02-21T10:39:40;97699.22;;;10.48
24201;BMP280;2801;50.972;7.856;2024-02-21T10:42:11;97702.22;;;10.47
24201;BMP280;2801;50.972;7.856;2024-02-21T10:44:40;97700.47;;;10.59
24201;BMP280;2801;50.972;7.856;2024-02-21T10:47:11;97701.06;;;10.73
24201;BMP280;2801;50.972;7.856;2024-02-21T10:49:41;97695.25;;;10.71
24201;BMP280;2801;50.972;7.856;2024-02-21T10:55:09;97677.56;;;10.79
24201;BMP280;2801;50.972;7.856;2024-02-21T10:57:38;97676.75;;;10.95
24201;BMP280;2801;50.972;7.856;2024-02-21T11:00:08;97672.00;;;10.92
24201;BMP280;2801;50.972;7.856;2024-02-21T11:02:39;97671.06;;;10.97
24201;BMP280;2801;50.972;7.856;2024-02-21T11:05:08;97662.72;;;10.90
24201;BMP280;2801;50.972;7.856;2024-02-21T11:07:37;97658.47;;;10.89
24201;BMP280;2801;50.972;7.856;2024-02-21T11:10:05;97648.53;;;10.89
24201;BMP280;2801;50.972;7.856;2024-02-21T11:12:34;97648.66;;;10.93
24201;BMP280;2801;50.972;7.856;2024-02-21T11:15:07;97655.16;;;10.92
24201;BMP280;2801;50.972;7.856;2024-02-21T11:17:34;97645.97;;;11.01
24201;BMP280;2801;50.972;7.856;2024-02-21T11:20:15;97643.91;;;10.98
24201;BMP280;2801;50.972;7.856;2024-02-21T11:22:43;97646.25;;;11.08
24201;BMP280;2801;50.972;7.856;2024-02-21T11:25:10;97632.97;;;11.12
24201;BMP280;2801;50.972;7.856;2024-02-21T11:27:46;97635.06;;;11.06
24201;BMP280;2801;50.972;7.856;2024-02-21T11:30:13;97619.09;;;11.10
24201;BMP280;2801;50.972;7.856;2024-02-21T11:32:41;97615.44;;;11.14
24201;BMP280;2801;50.972;7.856;2024-02-21T11:35:19;97604.03;;;11.26
24201;BMP280;2801;50.972;7.856;2024-02-21T11:37:46;97601.81;;;11.28
24201;BMP280;2801;50.972;7.856;2024-02-21T11:40:13;97595.78;;;11.31
24201;BMP280;2801;50.972;7.856;2024-02-21T11:42:40;97593.94;;;11.23
24201;BMP280;2801;50.972;7.856;2024-02-21T11:45:08;97587.31;;;11.20
24201;BMP280;2801;50.972;7.856;2024-02-21T11:47:37;97572.31;;;11.19
24201;BMP280;2801;50.972;7.856;2024-02-21T11:50:12;97561.00;;;11.14
24201;BMP280;2801;50.972;7.856;2024-02-21T11:52:42;97556.69;;;11.21
24201;BMP280;2801;50.972;7.856;2024-02-21T11:55:09;97546.88;;;11.25
24201;BMP280;2801;50.972;7.856;2024-02-21T11:57:37;97539.75;;;11.29
24201;BMP280;2801;50.972;7.856;2024-02-21T12:00:19;97530.41;;;11.36
24201;BMP280;2801;50.972;7.856;2024-02-21T12:02:51;97524.84;;;11.41
24201;BMP280;2801;50.972;7.856;2024-02-21T12:05:21;97507.03;;;11.36
24201;BMP280;2801;50.972;7.856;2024-02-21T12:07:48;97504.28;;;11.45
24201;BMP280;2801;50.972;7.856;2024-02-21T12:10:15;97509.13;;;11.51
24201;BMP280;2801;50.972;7.856;2024-02-21T12:12:42;97520.59;;;11.60
24201;BMP280;2801;50.972;7.856;2024-02-21T12:15:10;97504.66;;;11.55
24201;BMP280;2801;50.972;7.856;2024-02-21T12:17:37;97520.47;;;11.57
24201;BMP280;2801;50.972;7.856;2024-02-21T12:20:06;97502.59;;;11.61
24201;BMP280;2801;50.972;7.856;2024-02-21T12:22:39;97497.53;;;11.59
24201;BMP280;2801;50.972;7.856;2024-02-21T12:25:22;97486.00;;;11.67
24201;BMP280;2801;50.972;7.856;2024-02-21T12:27:50;97475.25;;;11.67
24201;BMP280;2801;50.972;7.856;2024-02-21T12:30:18;97484.81;;;11.77
24201;BMP280;2801;50.972;7.856;2024-02-21T12:32:46;97473.72;;;11.78
24201;BMP280;2801;50.972;7.856;2024-02-21T12:35:13;97468.44;;;11.70
24201;BMP280;2801;50.972;7.856;2024-02-21T12:37:40;97464.28;;;11.72
24201;BMP280;2801;50.972;7.856;2024-02-21T12:40:09;97464.22;;;11.60
24201;BMP280;2801;50.972;7.856;2024-02-21T12:42:37;97460.81;;;11.51
24201;BMP280;2801;50.972;7.856;2024-02-21T12:45:05;97454.25;;;11.40
24201;BMP280;2801;50.972;7.856;2024-02-21T12:47:32;97448.72;;;11.45
24201;BMP280;2801;50.972;7.856;2024-02-21T12:49:59;97446.88;;;11.37
24201;BMP280;2801;50.972;7.856;2024-02-21T12:52:26;97440.34;;;11.26
24201;BMP280;2801;50.972;7.856;2024-02-21T12:54:53;97437.06;;;11.20
24201;BMP280;2801;50.972;7.856;2024-02-21T12:57:23;97426.31;;;11.20
24201;BMP280;2801;50.972;7.856;2024-02-21T12:59:53;97404.44;;;11.10
24201;BMP280;2801;50.972;7.856;2024-02-21T13:02:21;97409.38;;;11.08
24201;BMP280;2801;50.972;7.856;2024-02-21T13:04:48;97401.00;;;11.09
24201;BMP280;2801;50.972;7.856;2024-02-21T13:07:15;97386.69;;;11.05
24201;BMP280;2801;50.972;7.856;2024-02-21T13:09:42;97387.66;;;11.01
24201;BMP280;2801;50.972;7.856;2024-02-21T13:12:09;97385.03;;;10.92
24201;BMP280;2801;50.972;7.856;2024-02-21T13:14:37;97370.53;;;10.93
24201;BMP280;2801;50.972;7.856;2024-02-21T13:17:05;97350.31;;;10.96
24201;BMP280;2801;50.972;7.856;2024-02-21T13:19:36;97345.78;;;11.08
24201;BMP280;2801;50.972;7.856;2024-02-21T13:22:03;97336.56;;;11.18
24201;BMP280;2801;50.972;7.856;2024-02-21T13:24:30;97335.13;;;11.32
24201;BMP280;2801;50.972;7.856;2024-02-21T13:26:58;97347.25;;;11.39
24201;BMP280;2801;50.972;7.856;2024-02-21T13:29:25;97345.69;;;11.50
24201;BMP280;2801;50.972;7.856;2024-02-21T13:31:52;97344.84;;;11.58
24201;BMP280;2801;50.972;7.856;2024-02-21T13:34:19;97341.78;;;11.47
24201;BMP280;2801;50.972;7.856;2024-02-21T13:36:46;97315.66;;;11.56
24201;BMP280;2801;50.972;7.856;2024-02-21T13:39:13;97300.63;;;11.55
24201;BMP280;2801;50.972;7.856;2024-02-21T13:41:43;97286.19;;;11.48
24201;BMP280;2801;50.972;7.856;2024-02-21T13:44:10;97285.00;;;11.57
24201;BMP280;2801;50.972;7.856;2024-02-21T13:46:39;97285.53;;;11.51
24201;BMP280;2801;50.972;7.856;2024-02-21T13:49:06;97279.03;;;11.52
24201;BMP280;2801;50.972;7.856;2024-02-21T13:51:37;97262.69;;;11.45
24201;BMP280;2801;50.972;7.856;2024-02-21T13:54:04;97260.81;;;11.45
24201;BMP280;2801;50.972;7.856;2024-02-21T13:56:31;97254.44;;;11.50
24201;BMP280;2801;50.972;7.856;2024-02-21T13:58:58;97244.94;;;11.52
24201;BMP280;2801;50.972;7.856;2024-02-21T14:01:27;97244.72;;;11.45
24201;BMP280;2801;50.972;7.856;2024-02-21T14:03:59;97236.66;;;11.45
24201;BMP280;2801;50.972;7.856;2024-02-21T14:06:26;97221.53;;;11.41
24201;BMP280;2801;50.972;7.856;2024-02-21T14:08:53;97223.78;;;11.39
24201;BMP280;2801;50.972;7.856;2024-02-21T14:11:20;97217.28;;;11.27
24201;BMP280;2801;50.972;7.856;2024-02-21T14:13:47;97197.03;;;11.18
24201;BMP280;2801;50.972;7.856;2024-02-21T14:16:14;97155.75;;;11.10
24201;BMP280;2801;50.972;7.856;2024-02-21T14:18:41;97158.09;;;11.12
24201;BMP280;2801;50.972;7.856;2024-02-21T14:21:10;97155.88;;;11.14
24201;BMP280;2801;50.972;7.856;2024-02-21T14:23:40;97131.28;;;11.00
24201;BMP280;2801;50.972;7.856;2024-02-21T14:26:07;97131.50;;;11.07
24201;BMP280;2801;50.972;7.856;2024-02-21T14:28:34;97122.91;;;11.01
24201;BMP280;2801;50.972;7.856;2024-02-21T14:31:01;97123.00;;;11.05
24201;BMP280;2801;50.972;7.856;2024-02-21T14:33:30;97110.38;;;11.05
24201;BMP280;2801;50.972;7.856;2024-02-21T14:35:58;97117.06;;;11.11
24201;BMP280;2801;50.972;7.856;2024-02-21T14:38:25;97096.88;;;11.14